createdAt,value
2023-05-20T00:00:20.412Z,11.30
2023-05-20T00:01:22.963Z,12.10
2023-05-20T00:02:25.276Z,11.60
2023-05-20T00:03:29.049Z,9.60
2023-05-20T00:04:32.770Z,13.00
2023-05-20T00:05:35.326Z,11.10
2023-05-20T00:06:37.480Z,12.60
2023-05-20T00:07:39.545Z,10.40
2023-05-20T00:08:42.202Z,10.40
2023-05-20T00:09:44.726Z,11.60
2023-05-20T00:10:46.879Z,12.10
2023-05-20T00:11:49.046Z,11.60
2023-05-20T00:12:51.218Z,9.60
2023-05-20T00:13:53.284Z,11.70
2023-05-20T00:14:56.150Z,11.90
2023-05-20T00:15:58.554Z,11.50
2023-05-20T00:17:02.046Z,9.80
2023-05-20T00:18:04.564Z,10.40
2023-05-20T00:19:07.006Z,11.10
2023-05-20T00:20:11.085Z,11.27
2023-05-20T00:21:13.451Z,11.50
2023-05-20T00:22:15.714Z,11.40
2023-05-20T00:23:17.973Z,11.90
2023-05-20T00:24:20.264Z,12.20
2023-05-20T00:25:22.518Z,8.90
2023-05-20T00:26:26.758Z,11.90
2023-05-20T00:27:30.164Z,11.20
2023-05-20T00:28:32.305Z,11.10
2023-05-20T00:29:34.979Z,13.90
2023-05-20T00:30:40.681Z,11.90
2023-05-20T00:31:42.917Z,13.70
2023-05-20T00:32:45.195Z,11.90
2023-05-20T00:33:47.514Z,11.00
2023-05-20T00:34:59.423Z,12.50
2023-05-20T00:36:02.317Z,8.90
2023-05-20T00:37:05.612Z,10.60
2023-05-20T00:38:08.053Z,11.50
2023-05-20T00:39:10.637Z,12.10
2023-05-20T00:40:15.606Z,10.10
2023-05-20T00:41:18.638Z,11.30
2023-05-20T00:42:22.063Z,11.50
2023-05-20T00:43:26.033Z,10.70
2023-05-20T00:44:29.102Z,12.70
2023-05-20T00:45:32.430Z,10.80
2023-05-20T00:46:36.190Z,12.50
2023-05-20T00:47:38.889Z,12.30
2023-05-20T00:48:44.020Z,12.50
2023-05-20T00:49:50.339Z,11.30
2023-05-20T00:50:53.961Z,10.90
2023-05-20T00:51:56.405Z,9.80
2023-05-20T00:52:59.066Z,10.60
2023-05-20T00:54:01.621Z,10.50
2023-05-20T00:55:04.180Z,10.70
2023-05-20T00:56:08.550Z,11.30
2023-05-20T00:57:11.738Z,11.80
2023-05-20T00:58:14.210Z,10.50
2023-05-20T00:59:16.691Z,10.45
2023-05-20T01:00:20.023Z,10.70
2023-05-20T01:01:22.881Z,10.30
2023-05-20T01:02:26.007Z,11.45
2023-05-20T01:03:29.803Z,9.20
2023-05-20T01:04:33.437Z,10.00
2023-05-20T01:05:36.010Z,9.70
2023-05-20T01:06:38.815Z,10.90
2023-05-20T01:07:42.088Z,9.40
2023-05-20T01:08:44.508Z,11.00
2023-05-20T01:09:47.321Z,11.50
2023-05-20T01:10:53.292Z,11.30
2023-05-20T01:12:05.881Z,9.80
2023-05-20T01:13:14.673Z,11.70
2023-05-20T01:14:19.709Z,9.50
2023-05-20T01:15:25.491Z,10.50
2023-05-20T01:16:28.918Z,10.00
2023-05-20T01:17:33.372Z,10.70
2023-05-20T01:18:41.362Z,10.10
2023-05-20T01:19:45.813Z,9.00
2023-05-20T01:20:49.761Z,10.70
2023-05-20T01:21:53.668Z,11.20
2023-05-20T01:22:56.972Z,11.80
2023-05-20T01:24:01.131Z,9.90
2023-05-20T01:25:04.755Z,8.60
2023-05-20T01:26:08.506Z,10.60
2023-05-20T01:27:12.906Z,12.00
2023-05-20T01:28:17.395Z,10.30
2023-05-20T01:29:19.616Z,10.00
2023-05-20T01:30:22.273Z,10.90
2023-05-20T01:31:28.099Z,10.60
2023-05-20T01:32:40.614Z,9.90
2023-05-20T01:33:44.557Z,10.50
2023-05-20T01:34:49.858Z,8.40
2023-05-20T01:35:52.733Z,10.60
2023-05-20T01:36:55.856Z,9.73
2023-05-20T01:38:00.187Z,11.00
2023-05-20T01:39:03.273Z,9.50
2023-05-20T01:40:08.340Z,10.90
2023-05-20T01:41:11.809Z,9.00
2023-05-20T01:42:15.712Z,10.40
2023-05-20T01:43:18.318Z,11.30
2023-05-20T01:44:21.059Z,7.70
2023-05-20T01:45:25.086Z,10.64
2023-05-20T01:46:27.595Z,11.10
2023-05-20T01:47:30.661Z,11.20
2023-05-20T01:48:34.541Z,8.40
2023-05-20T01:49:36.842Z,9.30
2023-05-20T01:50:39.468Z,9.70
2023-05-20T01:51:41.875Z,9.27
2023-05-20T01:52:45.615Z,10.10
2023-05-20T01:53:49.205Z,11.00
2023-05-20T01:54:53.969Z,10.40
2023-05-20T01:55:56.961Z,9.10
2023-05-20T01:56:59.874Z,9.00
2023-05-20T01:58:02.822Z,8.80
2023-05-20T01:59:05.544Z,10.10
2023-05-20T02:00:09.179Z,8.64
2023-05-20T02:01:13.528Z,8.60
2023-05-20T02:02:17.867Z,9.70
2023-05-20T02:03:20.332Z,9.20
2023-05-20T02:04:22.779Z,9.10
2023-05-20T02:05:25.370Z,9.20
2023-05-20T02:06:27.712Z,8.90
2023-05-20T02:07:30.637Z,9.80
2023-05-20T02:08:32.894Z,8.30
2023-05-20T02:09:35.289Z,10.00
2023-05-20T02:10:37.533Z,10.30
2023-05-20T02:11:40.293Z,8.80
2023-05-20T02:12:43.171Z,10.27
2023-05-20T02:13:45.515Z,9.00
2023-05-20T02:14:49.792Z,10.00
2023-05-20T02:15:52.247Z,10.30
2023-05-20T02:16:54.974Z,9.10
2023-05-20T02:17:57.654Z,9.82
2023-05-20T02:19:01.935Z,10.00
2023-05-20T02:20:07.131Z,9.30
2023-05-20T02:21:09.763Z,8.70
2023-05-20T02:22:14.204Z,9.50
2023-05-20T02:23:18.724Z,9.00
2023-05-20T02:24:20.951Z,10.18
2023-05-20T02:25:23.311Z,9.60
2023-05-20T02:26:25.821Z,9.50
2023-05-20T02:27:28.176Z,9.40
2023-05-20T02:28:30.524Z,9.10
2023-05-20T02:29:32.770Z,9.00
2023-05-20T02:30:35.228Z,8.00
2023-05-20T02:31:38.118Z,9.30
2023-05-20T02:32:40.217Z,10.10
2023-05-20T02:33:42.480Z,9.90
2023-05-20T02:34:45.438Z,8.64
2023-05-20T02:35:47.701Z,8.70
2023-05-20T02:36:51.274Z,9.00
2023-05-20T02:37:53.610Z,8.60
2023-05-20T02:38:56.259Z,9.60
2023-05-20T02:39:58.650Z,8.90
2023-05-20T02:41:02.079Z,10.20
2023-05-20T02:42:05.178Z,8.60
2023-05-20T02:43:07.609Z,7.60
2023-05-20T02:44:10.329Z,8.91
2023-05-20T02:45:12.580Z,7.80
2023-05-20T02:46:17.092Z,10.00
2023-05-20T02:47:19.549Z,8.90
2023-05-20T02:48:23.107Z,10.10
2023-05-20T02:49:26.177Z,9.00
2023-05-20T02:50:28.481Z,8.00
2023-05-20T02:51:33.785Z,9.90
2023-05-20T02:52:36.509Z,10.10
2023-05-20T02:53:39.617Z,10.20
2023-05-20T02:54:41.957Z,9.60
2023-05-20T02:55:47.382Z,10.10
2023-05-20T02:56:49.765Z,9.40
2023-05-20T02:57:51.994Z,6.80
2023-05-20T02:58:56.308Z,10.40
2023-05-20T02:59:58.984Z,9.50
2023-05-20T03:01:02.041Z,9.70
2023-05-20T03:02:06.298Z,8.90
2023-05-20T03:03:10.339Z,11.00
2023-05-20T03:04:12.787Z,9.50
2023-05-20T03:05:15.102Z,9.70
2023-05-20T03:06:18.002Z,6.18
2023-05-20T03:07:21.164Z,9.50
2023-05-20T03:08:25.240Z,10.10
2023-05-20T03:09:27.557Z,10.00
2023-05-20T03:10:29.814Z,9.40
2023-05-20T03:11:31.981Z,10.70
2023-05-20T03:12:34.390Z,9.80
2023-05-20T03:13:36.842Z,10.10
2023-05-20T03:14:39.081Z,10.40
2023-05-20T03:15:47.052Z,2.90
2023-05-20T03:16:49.525Z,9.60
2023-05-20T03:17:51.699Z,11.40
2023-05-20T03:18:54.246Z,8.70
2023-05-20T03:19:56.670Z,11.50
2023-05-20T03:20:58.900Z,5.50
2023-05-20T03:22:01.656Z,10.80
2023-05-20T03:23:07.513Z,11.91
2023-05-20T03:24:11.007Z,9.70
2023-05-20T03:25:13.786Z,10.90
2023-05-20T03:26:16.427Z,11.64
2023-05-20T03:27:18.773Z,11.20
2023-05-20T03:28:21.115Z,9.80
2023-05-20T03:29:23.448Z,11.40
2023-05-20T03:30:27.007Z,10.30
2023-05-20T03:31:30.814Z,9.60
2023-05-20T03:32:33.062Z,10.00
2023-05-20T03:33:35.489Z,10.40
2023-05-20T03:34:38.535Z,11.10
2023-05-20T03:35:43.605Z,10.91
2023-05-20T03:36:45.958Z,12.50
2023-05-20T03:37:48.222Z,10.70
2023-05-20T03:38:50.788Z,10.10
2023-05-20T03:39:53.168Z,9.30
2023-05-20T03:40:56.435Z,6.50
2023-05-20T03:41:59.717Z,10.20
2023-05-20T03:43:02.137Z,11.10
2023-05-20T03:44:05.287Z,9.27
2023-05-20T03:45:08.765Z,10.55
2023-05-20T03:46:14.445Z,9.70
2023-05-20T03:47:17.278Z,12.20
2023-05-20T03:48:20.022Z,10.20
2023-05-20T03:49:22.574Z,11.00
2023-05-20T03:50:25.498Z,6.36
2023-05-20T03:51:28.059Z,11.50
2023-05-20T03:52:32.421Z,11.70
2023-05-20T03:53:35.032Z,7.30
2023-05-20T03:54:37.309Z,12.40
2023-05-20T03:55:40.247Z,11.18
2023-05-20T03:56:42.926Z,10.20
2023-05-20T03:57:45.577Z,8.00
2023-05-20T03:58:47.846Z,10.70
2023-05-20T03:59:50.823Z,10.50
2023-05-20T04:00:53.342Z,11.20
2023-05-20T04:01:57.736Z,10.40
2023-05-20T04:03:00.737Z,11.40
2023-05-20T04:04:03.800Z,11.20
2023-05-20T04:05:08.499Z,12.09
2023-05-20T04:06:11.481Z,10.60
2023-05-20T04:07:13.752Z,10.20
2023-05-20T04:08:18.108Z,14.40
2023-05-20T04:09:20.913Z,11.20
2023-05-20T04:10:24.626Z,11.64
2023-05-20T04:11:26.983Z,11.50
2023-05-20T04:12:31.385Z,10.00
2023-05-20T04:13:34.110Z,10.60
2023-05-20T04:14:36.411Z,11.70
2023-05-20T04:15:38.883Z,10.70
2023-05-20T04:16:41.266Z,12.70
2023-05-20T04:17:45.506Z,12.70
2023-05-20T04:18:48.583Z,10.00
2023-05-20T04:19:50.856Z,12.10
2023-05-20T04:20:56.255Z,10.50
2023-05-20T04:21:58.460Z,13.40
2023-05-20T04:23:01.020Z,11.50
2023-05-20T04:24:03.516Z,11.40
2023-05-20T04:25:07.173Z,12.80
2023-05-20T04:26:09.979Z,9.90
2023-05-20T04:27:13.430Z,10.10
2023-05-20T04:28:15.842Z,11.00
2023-05-20T04:29:18.596Z,10.40
2023-05-20T04:30:21.481Z,10.80
2023-05-20T04:31:27.851Z,15.70
2023-05-20T04:32:30.316Z,12.30
2023-05-20T04:33:35.773Z,13.30
2023-05-20T04:34:38.628Z,10.40
2023-05-20T04:35:42.324Z,11.60
2023-05-20T04:36:45.655Z,11.40
2023-05-20T04:37:48.248Z,8.60
2023-05-20T04:38:51.455Z,12.50
2023-05-20T04:39:54.753Z,8.70
2023-05-20T04:40:57.667Z,9.90
2023-05-20T04:42:00.145Z,10.82
2023-05-20T04:43:03.918Z,11.00
2023-05-20T04:44:06.796Z,9.80
2023-05-20T04:45:10.210Z,12.82
2023-05-20T04:46:13.668Z,13.10
2023-05-20T04:47:16.327Z,12.40
2023-05-20T04:48:20.394Z,11.45
2023-05-20T04:49:24.992Z,9.20
2023-05-20T04:50:28.011Z,11.20
2023-05-20T04:51:30.451Z,10.45
2023-05-20T04:52:32.669Z,10.70
2023-05-20T04:53:36.713Z,10.50
2023-05-20T04:54:39.819Z,11.00
2023-05-20T04:55:43.209Z,10.40
2023-05-20T04:56:46.678Z,11.30
2023-05-20T04:57:49.251Z,10.70
2023-05-20T04:58:52.204Z,10.20
2023-05-20T04:59:56.705Z,9.00
2023-05-20T05:00:59.109Z,10.80
2023-05-20T05:02:02.831Z,10.00
2023-05-20T05:03:07.084Z,10.10
2023-05-20T05:04:09.532Z,9.70
2023-05-20T05:05:12.055Z,11.00
2023-05-20T05:06:15.200Z,11.64
2023-05-20T05:07:17.391Z,11.70
2023-05-20T05:08:19.864Z,13.11
2023-05-20T05:09:24.361Z,10.60
2023-05-20T05:10:28.076Z,11.40
2023-05-20T05:11:30.833Z,10.70
2023-05-20T05:12:33.368Z,9.45
2023-05-20T05:13:35.796Z,7.20
2023-05-20T05:14:38.020Z,9.60
2023-05-20T05:15:40.483Z,8.60
2023-05-20T05:16:43.285Z,8.82
2023-05-20T05:17:46.669Z,8.91
2023-05-20T05:18:49.893Z,11.20
2023-05-20T05:19:52.469Z,11.45
2023-05-20T05:21:05.039Z,10.80
2023-05-20T05:22:08.668Z,11.80
2023-05-20T05:23:12.317Z,10.90
2023-05-20T05:24:14.632Z,10.50
2023-05-20T05:25:16.889Z,12.90
2023-05-20T05:26:19.237Z,16.20
2023-05-20T05:27:22.438Z,13.00
2023-05-20T05:28:25.715Z,10.90
2023-05-20T05:29:28.064Z,9.91
2023-05-20T05:30:30.537Z,10.90
2023-05-20T05:31:33.189Z,14.80
2023-05-20T05:32:38.625Z,10.20
2023-05-20T05:33:41.702Z,10.10
2023-05-20T05:34:45.776Z,10.00
2023-05-20T05:35:48.498Z,10.40
2023-05-20T05:36:50.942Z,10.90
2023-05-20T05:37:54.900Z,11.70
2023-05-20T05:38:57.686Z,10.20
2023-05-20T05:40:01.039Z,11.00
2023-05-20T05:41:03.845Z,6.30
2023-05-20T05:42:06.369Z,9.20
2023-05-20T05:43:08.790Z,6.50
2023-05-20T05:44:11.368Z,10.40
2023-05-20T05:45:14.378Z,12.50
2023-05-20T05:46:17.269Z,9.40
2023-05-20T05:47:19.487Z,12.50
2023-05-20T05:48:22.798Z,12.73
2023-05-20T05:49:25.100Z,13.00
2023-05-20T05:50:29.022Z,8.30
2023-05-20T05:51:31.564Z,13.70
2023-05-20T05:52:35.007Z,11.40
2023-05-20T05:53:37.691Z,11.70
2023-05-20T05:54:40.332Z,12.50
2023-05-20T05:55:42.681Z,10.00
2023-05-20T05:56:45.151Z,7.00
2023-05-20T05:57:47.914Z,13.91
2023-05-20T05:58:50.854Z,12.90
2023-05-20T05:59:53.186Z,11.30
2023-05-20T06:00:56.038Z,11.40
2023-05-20T06:01:58.460Z,9.73
2023-05-20T06:03:00.979Z,11.20
2023-05-20T06:04:05.553Z,11.90
2023-05-20T06:05:09.818Z,13.70
2023-05-20T06:06:12.426Z,10.60
2023-05-20T06:07:14.785Z,10.10
2023-05-20T06:08:17.055Z,11.70
2023-05-20T06:09:20.989Z,10.73
2023-05-20T06:10:23.574Z,10.70
2023-05-20T06:11:25.914Z,10.60
2023-05-20T06:12:28.145Z,8.00
2023-05-20T06:13:32.782Z,11.60
2023-05-20T06:14:36.171Z,11.70
2023-05-20T06:15:40.438Z,9.50
2023-05-20T06:16:43.382Z,10.60
2023-05-20T06:17:45.921Z,12.00
2023-05-20T06:18:50.225Z,12.30
2023-05-20T06:19:54.608Z,8.40
2023-05-20T06:20:59.119Z,9.80
2023-05-20T06:22:01.799Z,10.80
2023-05-20T06:23:04.361Z,11.30
2023-05-20T06:24:08.965Z,11.20
2023-05-20T06:25:12.857Z,7.70
2023-05-20T06:26:16.065Z,13.00
2023-05-20T06:27:18.214Z,10.10
2023-05-20T06:28:20.772Z,7.60
2023-05-20T06:29:23.744Z,11.30
2023-05-20T06:30:26.136Z,9.70
2023-05-20T06:31:30.348Z,11.40
2023-05-20T06:32:33.066Z,12.00
2023-05-20T06:33:36.176Z,8.00
2023-05-20T06:34:40.475Z,10.90
2023-05-20T06:35:44.138Z,10.80
2023-05-20T06:36:47.038Z,11.50
2023-05-20T06:37:50.349Z,10.80
2023-05-20T06:38:52.759Z,11.20
2023-05-20T06:39:56.004Z,11.70
2023-05-20T06:40:58.576Z,11.50
2023-05-20T06:42:00.908Z,12.10
2023-05-20T06:43:05.110Z,10.00
2023-05-20T06:44:21.176Z,11.30
2023-05-20T06:45:31.527Z,10.40
2023-05-20T06:46:35.801Z,9.70
2023-05-20T06:47:41.092Z,9.90
2023-05-20T06:48:44.360Z,14.10
2023-05-20T06:49:47.772Z,12.00
2023-05-20T06:50:51.640Z,12.80
2023-05-20T06:51:54.222Z,10.60
2023-05-20T06:52:56.785Z,12.50
2023-05-20T06:53:59.056Z,10.80
2023-05-20T06:55:01.696Z,11.90
2023-05-20T06:56:04.479Z,12.50
2023-05-20T06:57:08.476Z,13.40
2023-05-20T06:58:11.933Z,11.10
2023-05-20T06:59:14.960Z,11.50
2023-05-20T07:00:18.805Z,12.50
2023-05-20T07:01:21.478Z,11.00
2023-05-20T07:02:25.178Z,13.00
2023-05-20T07:03:28.562Z,5.50
2023-05-20T07:04:31.816Z,12.20
2023-05-20T07:05:35.215Z,12.50
2023-05-20T07:06:37.864Z,10.80
2023-05-20T07:07:40.315Z,12.10
2023-05-20T07:08:43.638Z,8.00
2023-05-20T07:09:46.624Z,8.40
2023-05-20T07:10:49.219Z,11.40
2023-05-20T07:11:53.425Z,11.70
2023-05-20T07:12:57.258Z,12.20
2023-05-20T07:14:00.691Z,10.70
2023-05-20T07:15:06.792Z,11.60
2023-05-20T07:16:09.727Z,9.20
2023-05-20T07:17:13.669Z,9.40
2023-05-20T07:18:17.178Z,9.20
2023-05-20T07:19:21.656Z,7.10
2023-05-20T07:20:24.013Z,10.60
2023-05-20T07:21:26.742Z,12.90
2023-05-20T07:23:56.135Z,11.60
2023-05-20T07:24:59.768Z,11.20
2023-05-20T07:26:02.710Z,11.60
2023-05-20T07:27:05.406Z,13.50
2023-05-20T07:28:07.951Z,14.00
2023-05-20T07:29:10.732Z,5.50
2023-05-20T07:30:14.627Z,13.70
2023-05-20T07:31:18.795Z,12.40
2023-05-20T07:32:21.719Z,12.60
2023-05-20T07:33:24.176Z,11.64
2023-05-20T07:34:27.494Z,13.50
2023-05-20T07:35:30.362Z,14.80
2023-05-20T07:36:32.884Z,11.36
2023-05-20T07:37:36.989Z,12.20
2023-05-20T07:38:41.037Z,11.60
2023-05-20T07:39:44.385Z,11.10
2023-05-20T07:40:47.058Z,10.30
2023-05-20T07:41:50.653Z,10.50
2023-05-20T07:42:53.093Z,10.10
2023-05-20T07:43:55.557Z,11.10
2023-05-20T07:44:57.686Z,11.10
2023-05-20T07:46:00.787Z,11.10
2023-05-20T07:47:03.482Z,8.00
2023-05-20T07:48:07.861Z,9.00
2023-05-20T07:49:11.666Z,9.80
2023-05-20T07:50:15.679Z,9.50
2023-05-20T07:51:18.456Z,9.40
2023-05-20T07:52:20.928Z,7.10
2023-05-20T07:53:23.983Z,10.40
2023-05-20T07:54:27.111Z,8.20
2023-05-20T07:55:30.892Z,11.20
2023-05-20T07:56:33.807Z,8.60
2023-05-20T07:57:36.445Z,6.30
2023-05-20T07:58:41.415Z,9.10
2023-05-20T07:59:44.432Z,9.70
2023-05-20T08:00:47.603Z,11.30
2023-05-20T08:01:49.915Z,10.30
2023-05-20T08:02:54.657Z,10.60
2023-05-20T08:03:59.285Z,11.80
2023-05-20T08:05:02.081Z,10.80
2023-05-20T08:06:05.471Z,9.30
2023-05-20T08:07:08.204Z,9.70
2023-05-20T08:08:12.544Z,9.30
2023-05-20T08:09:16.664Z,9.00
2023-05-20T08:10:20.900Z,7.90
2023-05-20T08:11:23.493Z,8.40
2023-05-20T08:12:26.074Z,7.70
2023-05-20T08:13:28.666Z,7.30
2023-05-20T08:14:31.734Z,7.70
2023-05-20T08:15:36.304Z,8.00
2023-05-20T08:16:40.049Z,5.60
2023-05-20T08:17:42.552Z,5.10
2023-05-20T08:18:45.577Z,7.30
2023-05-20T08:19:48.256Z,7.90
2023-05-20T08:20:51.738Z,4.90
2023-05-20T08:21:54.200Z,7.40
2023-05-20T08:22:57.280Z,6.91
2023-05-20T08:24:00.269Z,7.20
2023-05-20T08:25:04.097Z,5.20
2023-05-20T08:26:07.297Z,7.40
2023-05-20T08:27:09.894Z,5.70
2023-05-20T08:28:12.428Z,6.30
2023-05-20T08:29:15.148Z,7.30
2023-05-20T08:30:18.225Z,5.90
2023-05-20T08:31:20.700Z,7.10
2023-05-20T08:32:23.015Z,6.30
2023-05-20T08:33:26.019Z,5.80
2023-05-20T08:34:28.238Z,6.40
2023-05-20T08:35:31.699Z,5.20
2023-05-20T08:36:35.267Z,5.90
2023-05-20T08:37:38.835Z,5.60
2023-05-20T08:38:42.396Z,5.50
2023-05-20T08:39:46.216Z,6.80
2023-05-20T08:40:55.962Z,7.00
2023-05-20T08:41:59.827Z,4.00
2023-05-20T08:43:02.656Z,6.10
2023-05-20T08:44:05.748Z,7.00
2023-05-20T08:45:11.249Z,6.40
2023-05-20T08:46:16.902Z,6.40
2023-05-20T08:47:21.915Z,6.70
2023-05-20T08:48:27.315Z,5.30
2023-05-20T08:49:30.476Z,3.30
2023-05-20T08:50:33.526Z,5.00
2023-05-20T08:51:37.318Z,5.60
2023-05-20T08:52:46.161Z,6.90
2023-05-20T08:53:50.302Z,7.30
2023-05-20T08:54:53.722Z,5.80
2023-05-20T08:56:01.366Z,5.20
2023-05-20T08:57:05.329Z,5.30
2023-05-20T08:58:08.588Z,5.90
2023-05-20T08:59:11.553Z,5.80
2023-05-20T09:00:16.438Z,6.20
2023-05-20T09:01:22.451Z,7.10
2023-05-20T09:02:26.023Z,6.60
2023-05-20T09:03:29.640Z,6.60
2023-05-20T09:04:33.855Z,6.20
2023-05-20T09:05:36.916Z,6.60
2023-05-20T09:06:44.303Z,5.80
2023-05-20T09:07:46.939Z,5.60
2023-05-20T09:08:50.794Z,4.80
2023-05-20T09:09:53.574Z,5.60
2023-05-20T09:10:56.132Z,6.70
2023-05-20T09:11:59.662Z,2.80
2023-05-20T09:13:03.710Z,5.00
2023-05-20T09:14:06.742Z,3.70
2023-05-20T09:15:09.488Z,4.60
2023-05-20T09:16:12.913Z,6.10
2023-05-20T09:17:18.266Z,4.70
2023-05-20T09:18:20.905Z,4.50
2023-05-20T09:19:25.837Z,5.90
2023-05-20T09:20:29.415Z,5.00
2023-05-20T09:21:32.488Z,3.90
2023-05-20T09:22:35.068Z,3.91
2023-05-20T09:23:38.678Z,6.40
2023-05-20T09:24:41.987Z,5.80
2023-05-20T09:25:44.278Z,5.00
2023-05-20T09:26:47.363Z,5.40
2023-05-20T09:27:50.197Z,4.91
2023-05-20T09:28:53.250Z,4.90
2023-05-20T09:29:57.192Z,4.20
2023-05-20T09:31:01.097Z,6.00
2023-05-20T09:32:05.082Z,5.40
2023-05-20T09:33:08.731Z,4.80
2023-05-20T09:34:11.772Z,5.00
2023-05-20T09:35:16.287Z,5.27
2023-05-20T09:36:21.390Z,4.80
2023-05-20T09:37:25.941Z,5.90
2023-05-20T09:38:32.496Z,4.30
2023-05-20T09:39:38.873Z,4.30
2023-05-20T09:40:44.314Z,5.70
2023-05-20T09:41:52.277Z,5.00
2023-05-20T09:42:59.267Z,5.10
2023-05-20T09:44:03.765Z,5.00
2023-05-20T09:45:08.961Z,5.00
2023-05-20T09:46:11.418Z,4.20
2023-05-20T09:47:16.644Z,5.70
2023-05-20T09:48:19.404Z,5.20
2023-05-20T09:49:23.322Z,5.09
2023-05-20T09:50:26.956Z,5.60
2023-05-20T09:51:31.901Z,5.90
2023-05-20T09:52:43.773Z,4.70
2023-05-20T09:53:47.626Z,6.50
2023-05-20T09:54:51.063Z,4.90
2023-05-20T09:55:54.372Z,6.30
2023-05-20T09:57:08.678Z,5.50
2023-05-20T09:58:16.109Z,5.00
2023-05-20T09:59:22.594Z,5.00
2023-05-20T10:00:25.572Z,6.40
2023-05-20T10:01:29.120Z,5.55
2023-05-20T10:02:34.502Z,4.40
2023-05-20T10:03:37.924Z,5.90
2023-05-20T10:04:44.638Z,4.80
2023-05-20T10:06:06.827Z,5.20
2023-05-20T10:07:38.017Z,4.60
2023-05-20T10:08:46.039Z,6.80
2023-05-20T10:09:58.399Z,5.50
2023-05-20T10:11:14.243Z,5.70
2023-05-20T10:12:23.131Z,4.70
2023-05-20T10:13:44.846Z,5.40
2023-05-20T10:15:03.478Z,5.50
2023-05-20T10:16:31.068Z,5.40
2023-05-20T10:17:46.330Z,6.00
2023-05-20T10:19:10.088Z,5.70
2023-05-20T10:20:14.967Z,3.60
2023-05-20T10:21:21.510Z,4.10
2023-05-20T10:22:32.448Z,4.90
2023-05-20T10:23:36.204Z,5.00
2023-05-20T10:24:44.935Z,4.90
2023-05-20T10:25:54.091Z,5.30
2023-05-20T10:26:58.538Z,5.40
2023-05-20T10:28:08.067Z,5.60
2023-05-20T10:29:22.561Z,5.50
2023-05-20T10:30:25.113Z,4.90
2023-05-20T10:31:27.749Z,3.40
2023-05-20T10:32:32.459Z,4.80
2023-05-20T10:33:38.666Z,5.70
2023-05-20T10:34:48.478Z,4.10
2023-05-20T10:35:54.295Z,5.90
2023-05-20T10:36:58.894Z,5.70
2023-05-20T10:38:11.875Z,5.50
2023-05-20T10:39:17.223Z,6.70
2023-05-20T10:40:22.120Z,5.00
2023-05-20T10:41:28.578Z,6.50
2023-05-20T10:42:31.805Z,4.70
2023-05-20T10:43:34.250Z,5.50
2023-05-20T10:44:47.127Z,5.00
2023-05-20T10:45:53.093Z,6.00
2023-05-20T10:47:23.583Z,5.90
2023-05-20T10:48:08.181Z,4.40
2023-05-20T10:49:22.439Z,4.60
2023-05-20T10:51:43.421Z,5.80
2023-05-20T10:52:45.988Z,5.70
2023-05-20T10:53:52.140Z,5.90
2023-05-20T10:54:57.688Z,5.50
2023-05-20T10:56:00.077Z,4.90
2023-05-20T10:57:11.108Z,5.10
2023-05-20T10:58:15.422Z,4.50
2023-05-20T10:59:18.180Z,3.40
2023-05-20T11:00:21.154Z,5.70
2023-05-20T11:01:26.237Z,6.00
2023-05-20T11:02:28.988Z,4.80
2023-05-20T11:03:32.836Z,5.00
2023-05-20T11:04:36.650Z,6.30
2023-05-20T11:05:40.124Z,3.50
2023-05-20T11:06:53.249Z,4.80
2023-05-20T11:08:16.821Z,4.50
2023-05-20T11:09:12.382Z,5.10
2023-05-20T11:10:15.322Z,4.10
2023-05-20T11:11:17.654Z,4.80
2023-05-20T11:12:22.161Z,5.10
2023-05-20T11:13:24.907Z,4.60
2023-05-20T11:14:30.794Z,4.80
2023-05-20T11:15:36.099Z,4.30
2023-05-20T11:16:38.834Z,5.10
2023-05-20T11:17:55.672Z,4.80
2023-05-20T11:19:00.330Z,4.10
2023-05-20T11:20:04.634Z,4.70
2023-05-20T11:21:07.500Z,6.20
2023-05-20T11:22:10.348Z,5.90
2023-05-20T11:23:14.703Z,4.60
2023-05-20T11:24:26.949Z,5.00
2023-05-20T11:25:29.982Z,4.90
2023-05-20T11:26:32.789Z,6.00
2023-05-20T11:27:41.071Z,4.40
2023-05-20T11:28:43.724Z,5.90
2023-05-20T11:29:49.830Z,4.70
2023-05-20T11:30:52.817Z,5.80
2023-05-20T11:31:55.378Z,5.36
2023-05-20T11:33:00.804Z,6.00
2023-05-20T11:34:03.745Z,5.80
2023-05-20T11:35:08.493Z,6.10
2023-05-20T11:36:23.858Z,5.80
2023-05-20T11:37:19.579Z,4.60
2023-05-20T11:38:22.338Z,4.60
2023-05-20T11:39:26.862Z,5.36
2023-05-20T11:40:38.981Z,3.10
2023-05-20T11:41:36.199Z,5.50
2023-05-20T11:42:38.548Z,3.80
2023-05-20T11:43:42.205Z,3.70
2023-05-20T11:44:45.923Z,4.30
2023-05-20T11:45:54.815Z,3.00
2023-05-20T11:47:02.696Z,5.10
2023-05-20T11:48:06.526Z,5.40
2023-05-20T11:49:09.172Z,4.30
2023-05-20T11:50:18.630Z,5.73
2023-05-20T11:51:28.465Z,6.00
2023-05-20T11:52:34.492Z,5.30
2023-05-20T11:53:40.639Z,5.90
2023-05-20T11:54:43.366Z,3.90
2023-05-20T11:55:58.046Z,4.70
2023-05-20T11:57:00.744Z,5.00
2023-05-20T11:58:03.420Z,6.00
2023-05-20T11:59:08.937Z,4.80
2023-05-20T12:00:13.253Z,5.30
2023-05-20T12:01:22.520Z,4.70
2023-05-20T12:02:20.383Z,6.30
2023-05-20T12:03:23.029Z,5.00
2023-05-20T12:04:25.560Z,4.91
2023-05-20T12:05:28.061Z,4.00
2023-05-20T12:06:31.019Z,5.20
2023-05-20T12:07:33.375Z,4.82
2023-05-20T12:08:36.149Z,6.40
2023-05-20T12:09:38.370Z,5.80
2023-05-20T12:10:40.734Z,6.90
2023-05-20T12:11:44.601Z,6.10
2023-05-20T12:12:47.045Z,5.60
2023-05-20T12:13:50.844Z,6.60
2023-05-20T12:14:53.980Z,5.20
2023-05-20T12:15:56.657Z,5.80
2023-05-20T12:16:59.694Z,5.00
2023-05-20T12:18:02.991Z,6.50
2023-05-20T12:19:05.562Z,5.30
2023-05-20T12:20:09.764Z,6.50
2023-05-20T12:21:23.917Z,5.50
2023-05-20T12:22:27.698Z,5.60
2023-05-20T12:23:32.569Z,4.80
2023-05-20T12:24:34.971Z,4.40
2023-05-20T12:25:37.494Z,5.90
2023-05-20T12:26:40.753Z,4.10
2023-05-20T12:27:45.670Z,5.30
2023-05-20T12:28:48.295Z,3.30
2023-05-20T12:29:50.516Z,5.60
2023-05-20T12:30:53.352Z,5.00
2023-05-20T12:31:55.883Z,4.10
2023-05-20T12:32:58.478Z,2.45
2023-05-20T12:34:01.276Z,4.10
2023-05-20T12:35:04.742Z,5.00
2023-05-20T12:36:09.398Z,5.40
2023-05-20T12:37:11.913Z,5.90
2023-05-20T12:38:15.017Z,3.30
2023-05-20T12:39:19.159Z,5.00
2023-05-20T12:40:22.025Z,1.70
2023-05-20T12:41:24.308Z,6.80
2023-05-20T12:42:27.360Z,4.70
2023-05-20T12:43:30.318Z,5.73
2023-05-20T12:44:33.951Z,4.55
2023-05-20T12:45:37.272Z,5.40
2023-05-20T12:46:39.805Z,4.80
2023-05-20T12:47:42.592Z,4.40
2023-05-20T12:48:45.296Z,4.30
2023-05-20T12:49:47.893Z,3.91
2023-05-20T12:50:50.460Z,4.73
2023-05-20T12:51:52.842Z,4.40
2023-05-20T12:52:55.100Z,4.00
2023-05-20T12:53:57.581Z,4.50
2023-05-20T12:55:00.606Z,3.18
2023-05-20T12:56:03.839Z,4.00
2023-05-20T12:57:06.808Z,3.80
2023-05-20T12:58:09.062Z,3.90
2023-05-20T12:59:11.377Z,3.30
2023-05-20T13:00:15.154Z,3.73
2023-05-20T13:01:17.564Z,4.00
2023-05-20T13:02:20.680Z,3.80
2023-05-20T13:03:24.126Z,3.00
2023-05-20T13:04:27.515Z,3.70
2023-05-20T13:05:30.160Z,4.30
2023-05-20T13:06:35.214Z,5.70
2023-05-20T13:07:38.387Z,4.90
2023-05-20T13:08:41.136Z,3.50
2023-05-20T13:09:45.870Z,3.09
2023-05-20T13:10:49.102Z,3.80
2023-05-20T13:11:52.422Z,3.80
2023-05-20T13:12:56.346Z,3.80
2023-05-20T13:13:58.777Z,2.80
2023-05-20T13:15:01.301Z,3.30
2023-05-20T13:16:04.470Z,3.10
2023-05-20T13:17:07.113Z,3.10
2023-05-20T13:18:09.760Z,3.36
2023-05-20T13:19:12.662Z,3.20
2023-05-20T13:20:19.072Z,2.50
2023-05-20T13:21:21.573Z,3.30
2023-05-20T13:22:23.887Z,3.60
2023-05-20T13:23:27.059Z,2.20
2023-05-20T13:24:29.495Z,2.60
2023-05-20T13:25:31.721Z,3.10
2023-05-20T13:26:34.473Z,2.20
2023-05-20T13:27:37.624Z,3.91
2023-05-20T13:28:40.032Z,3.00
2023-05-20T13:29:43.846Z,3.00
2023-05-20T13:30:54.947Z,4.30
2023-05-20T13:31:58.837Z,3.10
2023-05-20T13:33:01.834Z,3.00
2023-05-20T13:34:05.671Z,3.09
2023-05-20T13:35:08.652Z,3.30
2023-05-20T13:36:13.177Z,2.60
2023-05-20T13:37:15.518Z,3.00
2023-05-20T13:38:18.039Z,2.70
2023-05-20T13:46:53.192Z,2.00
2023-05-20T13:47:55.824Z,3.55
2023-05-20T13:48:58.355Z,2.44
2023-05-20T13:50:03.054Z,3.70
2023-05-20T13:51:05.677Z,2.60
2023-05-20T13:52:09.104Z,2.11
2023-05-20T13:53:14.361Z,2.09
2023-05-20T13:54:17.173Z,3.20
2023-05-20T13:55:19.723Z,2.60
2023-05-20T13:56:22.802Z,3.00
2023-05-20T13:57:25.689Z,4.10
2023-05-20T13:58:29.316Z,2.50
2023-05-20T13:59:32.079Z,2.82
2023-05-20T14:00:36.382Z,1.89
2023-05-20T14:01:41.491Z,2.70
2023-05-20T14:02:44.314Z,1.20
2023-05-20T14:03:46.998Z,1.70
2023-05-20T14:06:18.045Z,2.40
2023-05-20T14:07:22.418Z,1.80
2023-05-20T14:08:30.847Z,1.50
2023-05-20T14:09:36.811Z,0.70
2023-05-20T14:10:39.600Z,2.56